Time;durP1;ratioP1;P1;durP2;ratioP2;P2;SDS_P1;SDS_P2;PMS_P1;PMS_P2;Temp;Humidity;BMP_temperature;BMP_pressure;BME280_temperature;BME280_humidity;BME280_pressure;Samples;Min_cycle;Max_cycle;Signal;HPM_P1;HPM_P2
2023/07/29 00:00:45;;;;;;;0.10;0.10;;;19.30;99.90;;;;;;5032000;28;20185;-80
2023/07/29 00:03:10;;;;;;;0.10;0.10;;;19.40;99.90;;;;;;5030233;28;20217;-81
2023/07/29 00:05:40;;;;;;;0.10;0.10;;;19.40;99.90;;;;;;5031665;28;20177;-81
2023/07/29 00:08:06;;;;;;;0.10;0.10;;;19.40;99.90;;;;;;5033519;28;20598;-80
2023/07/29 00:10:32;;;;;;;0.10;0.10;;;19.10;99.90;;;;;;5034010;28;20215;-80
2023/07/29 00:12:59;;;;;;;0.10;0.10;;;19.10;99.90;;;;;;5034163;28;20222;-80
2023/07/29 00:15:24;;;;;;;0.10;0.10;;;19.00;99.90;;;;;;5033725;28;20201;-80
2023/07/29 00:17:50;;;;;;;0.10;0.10;;;19.00;99.90;;;;;;5031707;28;20561;-81
2023/07/29 00:20:15;;;;;;;0.10;0.10;;;19.00;99.90;;;;;;5030681;28;20193;-80
2023/07/29 00:22:41;;;;;;;0.10;0.10;;;19.00;99.90;;;;;;5033122;28;20225;-80
2023/07/29 00:25:07;;;;;;;0.10;0.10;;;19.10;99.90;;;;;;5030344;28;20189;-81
2023/07/29 00:27:33;;;;;;;0.10;0.10;;;19.10;99.90;;;;;;5031871;28;20312;-81
2023/07/29 00:29:58;;;;;;;0.10;0.10;;;19.00;99.90;;;;;;5031131;28;20300;-81
2023/07/29 00:32:24;;;;;;;0.10;0.10;;;18.90;99.90;;;;;;5030640;28;20217;-81
2023/07/29 00:34:49;;;;;;;0.10;0.10;;;18.70;99.90;;;;;;5032113;28;20654;-81
2023/07/29 00:37:15;;;;;;;0.10;0.10;;;18.70;99.90;;;;;;5029334;28;20666;-82
2023/07/29 00:39:40;;;;;;;0.10;0.10;;;18.80;99.90;;;;;;5031489;28;20177;-81
2023/07/29 00:42:06;;;;;;;0.10;0.10;;;18.80;99.90;;;;;;5030802;28;20275;-81
2023/07/29 00:44:32;;;;;;;0.10;0.10;;;18.70;99.90;;;;;;5033462;28;20185;-82
2023/07/29 00:46:58;;;;;;;0.10;0.10;;;18.80;99.90;;;;;;5032682;28;20666;-81
2023/07/29 00:49:24;;;;;;;0.10;0.10;;;18.80;99.90;;;;;;5029985;28;20323;-81
2023/07/29 00:51:50;;;;;;;0.10;0.10;;;18.70;99.90;;;;;;5033725;28;20243;-81
2023/07/29 00:54:15;;;;;;;0.10;0.10;;;18.70;99.90;;;;;;5045547;28;20187;-81
2023/07/29 00:56:41;;;;;;;0.10;0.10;;;18.70;99.90;;;;;;5047194;28;20186;-81
2023/07/29 00:59:08;;;;;;;0.10;0.10;;;18.90;99.90;;;;;;5032633;28;20257;-82
2023/07/29 01:01:33;;;;;;;0.10;0.10;;;18.80;99.90;;;;;;5032762;28;20187;-81
2023/07/29 01:03:59;;;;;;;0.10;0.10;;;18.70;99.90;;;;;;5046377;28;20208;-81
2023/07/29 01:06:44;;;;;;;0.10;0.10;;;18.60;99.90;;;;;;5032299;28;20190;-81
2023/07/29 01:09:20;;;;;;;0.10;0.10;;;18.60;99.90;;;;;;5029423;28;20732;-81
2023/07/29 01:11:57;;;;;;;0.10;0.10;;;18.70;99.90;;;;;;5030240;28;20219;-81
2023/07/29 01:14:34;;;;;;;0.10;0.10;;;18.50;99.90;;;;;;5044652;28;20186;-81
2023/07/29 01:17:07;;;;;;;0.10;0.10;;;18.50;99.90;;;;;;5031340;28;20186;-82
2023/07/29 01:20:05;;;;;;;0.10;0.10;;;18.40;99.90;;;;;;5032447;28;20177;-82
2023/07/29 01:22:33;;;;;;;0.10;0.10;;;18.40;99.90;;;;;;5031489;28;20199;-82
2023/07/29 01:24:59;;;;;;;0.10;0.10;;;18.50;99.90;;;;;;5031852;28;20183;-81
2023/07/29 01:27:25;;;;;;;0.10;0.10;;;18.60;99.90;;;;;;5030800;28;20188;-81
2023/07/29 01:29:50;;;;;;;0.10;0.10;;;18.60;99.90;;;;;;5032834;28;20686;-81
2023/07/29 01:32:57;;;;;;;0.10;0.10;;;18.70;99.90;;;;;;5030576;28;20221;-81
2023/07/29 01:35:36;;;;;;;0.10;0.10;;;18.80;99.90;;;;;;5028971;28;20198;-81
2023/07/29 01:38:16;;;;;;;0.10;0.10;;;18.80;99.90;;;;;;5031253;28;20185;-81
2023/07/29 01:40:43;;;;;;;0.10;0.10;;;18.90;99.90;;;;;;5030409;28;20281;-82
2023/07/29 01:43:10;;;;;;;0.10;0.10;;;19.00;99.90;;;;;;5029625;28;20275;-80
2023/07/29 01:45:37;;;;;;;0.10;0.10;;;19.00;99.90;;;;;;5029883;28;20597;-82
2023/07/29 01:48:04;;;;;;;0.10;0.10;;;18.90;99.90;;;;;;5031488;28;20197;-81
2023/07/29 01:50:31;;;;;;;0.10;0.10;;;18.70;99.90;;;;;;5034166;28;20744;-81
2023/07/29 01:52:57;;;;;;;0.10;0.10;;;18.50;99.90;;;;;;5034671;28;20248;-81
2023/07/29 01:55:23;;;;;;;0.10;0.10;;;18.50;99.90;;;;;;5033495;28;20181;-81
2023/07/29 01:57:48;;;;;;;0.10;0.10;;;18.50;99.90;;;;;;5034581;28;20182;-81
2023/07/29 02:00:14;;;;;;;0.10;0.10;;;18.60;99.90;;;;;;5032935;28;20194;-82
2023/07/29 02:02:40;;;;;;;0.10;0.10;;;18.50;99.90;;;;;;5035199;28;20232;-81
2023/07/29 02:05:05;;;;;;;0.10;0.10;;;18.50;99.90;;;;;;5033279;28;20189;-81
2023/07/29 02:07:31;;;;;;;0.10;0.10;;;18.70;99.90;;;;;;5035174;28;20190;-81
2023/07/29 02:09:56;;;;;;;0.10;0.10;;;18.60;99.90;;;;;;5034000;28;20205;-81
2023/07/29 02:12:22;;;;;;;0.10;0.10;;;18.70;99.90;;;;;;5031919;28;20707;-81
2023/07/29 02:14:47;;;;;;;0.10;0.10;;;18.90;99.90;;;;;;5032795;28;20194;-81
2023/07/29 02:17:13;;;;;;;0.10;0.10;;;19.10;99.90;;;;;;5033668;28;20718;-82
2023/07/29 02:19:38;;;;;;;0.10;0.10;;;19.20;99.90;;;;;;5034915;28;20270;-81
2023/07/29 02:22:04;;;;;;;0.10;0.10;;;19.20;99.90;;;;;;5032365;28;20214;-81
2023/07/29 02:24:29;;;;;;;0.10;0.10;;;19.30;99.90;;;;;;5031572;28;20187;-81
2023/07/29 02:26:55;;;;;;;0.10;0.10;;;19.40;99.90;;;;;;5035721;28;20178;-81
2023/07/29 02:29:21;;;;;;;0.10;0.10;;;19.30;99.90;;;;;;5032400;28;20274;-81
2023/07/29 02:31:47;;;;;;;0.10;0.10;;;19.10;99.90;;;;;;5033004;28;20218;-80
2023/07/29 02:34:13;;;;;;;0.10;0.10;;;19.20;99.90;;;;;;5033296;28;20196;-81
2023/07/29 02:36:38;;;;;;;0.10;0.10;;;19.30;99.90;;;;;;5035031;28;20561;-81
2023/07/29 02:39:04;;;;;;;0.10;0.10;;;19.30;99.90;;;;;;5033524;28;20922;-81
2023/07/29 02:41:29;;;;;;;0.10;0.10;;;19.10;99.90;;;;;;5033179;28;20185;-82
2023/07/29 02:43:55;;;;;;;0.10;0.10;;;18.90;99.90;;;;;;5033940;28;20178;-80
2023/07/29 02:46:20;;;;;;;0.10;0.10;;;18.80;99.90;;;;;;5032472;28;20675;-81
2023/07/29 02:48:46;;;;;;;0.10;0.10;;;18.80;99.90;;;;;;5033390;28;20213;-80
2023/07/29 02:51:11;;;;;;;0.10;0.10;;;18.70;99.90;;;;;;5032901;28;20289;-82
2023/07/29 02:53:37;;;;;;;0.10;0.10;;;18.50;99.90;;;;;;5035496;28;20236;-81
2023/07/29 02:56:03;;;;;;;0.10;0.10;;;18.50;99.90;;;;;;5035627;28;20188;-81
2023/07/29 02:58:29;;;;;;;0.10;0.10;;;18.50;99.90;;;;;;5034271;28;20186;-82
2023/07/29 03:01:02;;;;;;;0.10;0.10;;;18.50;99.90;;;;;;5033140;28;20189;-81
2023/07/29 03:03:27;;;;;;;0.10;0.10;;;18.60;99.90;;;;;;5033395;28;20205;-81
2023/07/29 03:06:01;;;;;;;0.10;0.10;;;18.60;99.90;;;;;;5033813;28;20257;-81
2023/07/29 03:08:26;;;;;;;0.10;0.10;;;18.50;99.90;;;;;;5033676;28;20209;-82
2023/07/29 03:10:52;;;;;;;0.10;0.10;;;18.50;99.90;;;;;;5033904;28;20206;-81
2023/07/29 03:13:17;;;;;;;0.10;0.10;;;18.50;99.90;;;;;;5032357;28;20203;-81
2023/07/29 03:15:42;;;;;;;0.10;0.10;;;18.70;99.90;;;;;;5035225;28;20200;-80
2023/07/29 03:18:08;;;;;;;0.10;0.10;;;18.80;99.90;;;;;;5032644;28;20844;-81
2023/07/29 03:20:33;;;;;;;0.10;0.10;;;19.00;99.90;;;;;;5034579;28;20214;-81
2023/07/29 03:22:59;;;;;;;0.10;0.10;;;19.20;99.90;;;;;;5033613;28;20209;-81
2023/07/29 03:25:24;;;;;;;0.10;0.10;;;19.30;99.90;;;;;;5030433;28;20182;-81
2023/07/29 03:27:50;;;;;;;0.10;0.10;;;19.40;99.90;;;;;;5032696;28;20178;-80
2023/07/29 03:30:20;;;;;;;0.10;0.10;;;19.40;99.90;;;;;;5031830;28;20245;-81
2023/07/29 03:32:45;;;;;;;0.10;0.10;;;19.50;99.90;;;;;;5031301;28;20217;-82
2023/07/29 03:35:11;;;;;;;0.10;0.10;;;19.60;99.90;;;;;;5040147;28;20184;-81
2023/07/29 03:37:36;;;;;;;0.10;0.10;;;19.40;99.90;;;;;;5033967;28;20349;-81
2023/07/29 03:40:02;;;;;;;0.10;0.10;;;19.40;99.90;;;;;;5030176;28;20200;-81
2023/07/29 03:42:28;;;;;;;0.10;0.10;;;19.50;99.90;;;;;;5034947;28;20563;-81
2023/07/29 03:44:54;;;;;;;0.10;0.10;;;19.40;99.90;;;;;;5034179;28;20186;-80
2023/07/29 03:47:19;;;;;;;0.10;0.10;;;19.30;99.90;;;;;;5033524;28;20180;-81
2023/07/29 03:49:45;;;;;;;0.10;0.10;;;19.30;99.90;;;;;;5031162;28;20652;-82
2023/07/29 03:52:10;;;;;;;0.10;0.10;;;19.40;99.90;;;;;;5034317;28;20216;-81
2023/07/29 03:54:36;;;;;;;0.10;0.10;;;19.40;99.90;;;;;;5031189;28;20179;-81
2023/07/29 03:57:01;;;;;;;0.10;0.10;;;19.40;99.90;;;;;;5031167;28;20189;-81
2023/07/29 03:59:27;;;;;;;0.10;0.10;;;19.30;99.90;;;;;;5035005;28;20189;-81
2023/07/29 04:01:52;;;;;;;0.10;0.10;;;19.40;99.90;;;;;;5030548;28;20287;-81
2023/07/29 04:04:17;;;;;;;0.10;0.10;;;19.50;99.90;;;;;;5030932;28;20576;-81
2023/07/29 04:06:43;;;;;;;0.10;0.10;;;19.50;99.90;;;;;;5030932;28;20198;-81
2023/07/29 04:09:09;;;;;;;0.10;0.10;;;19.60;99.90;;;;;;5031455;28;20666;-81
2023/07/29 04:11:34;;;;;;;0.10;0.10;;;19.40;99.90;;;;;;5030115;28;20394;-81
2023/07/29 04:14:00;;;;;;;0.10;0.10;;;19.10;99.90;;;;;;5032288;28;20762;-81
2023/07/29 04:16:26;;;;;;;0.10;0.10;;;19.10;99.90;;;;;;5031208;28;20182;-82
2023/07/29 04:18:51;;;;;;;0.10;0.10;;;19.10;99.90;;;;;;5031078;28;20236;-81
2023/07/29 04:21:17;;;;;;;0.10;0.10;;;19.10;99.90;;;;;;5031082;28;20632;-82
2023/07/29 04:23:42;;;;;;;0.10;0.10;;;19.20;99.90;;;;;;5030928;28;20258;-81
2023/07/29 04:26:08;;;;;;;0.10;0.10;;;19.40;99.90;;;;;;5047585;28;20220;-81
2023/07/29 04:28:33;;;;;;;0.10;0.10;;;19.30;99.90;;;;;;5029651;28;20899;-81
2023/07/29 04:30:59;;;;;;;0.10;0.10;;;19.20;99.90;;;;;;5031368;28;20213;-81
2023/07/29 04:33:25;;;;;;;0.10;0.10;;;19.20;99.90;;;;;;5030334;28;20224;-81
2023/07/29 04:35:50;;;;;;;0.10;0.10;;;19.20;99.90;;;;;;5027020;28;20177;-81
2023/07/29 04:38:16;;;;;;;0.10;0.10;;;19.10;99.90;;;;;;5030656;28;20550;-81
2023/07/29 04:40:41;;;;;;;0.10;0.10;;;19.10;99.90;;;;;;5029852;28;20213;-81
2023/07/29 04:43:07;;;;;;;0.10;0.10;;;19.30;99.90;;;;;;5030630;28;20272;-81
2023/07/29 04:45:32;;;;;;;0.10;0.10;;;19.50;99.90;;;;;;5033214;28;20696;-81
2023/07/29 04:47:58;;;;;;;0.10;0.10;;;19.60;99.90;;;;;;5027953;28;20224;-81
2023/07/29 04:50:24;;;;;;;0.10;0.10;;;19.70;99.90;;;;;;5031041;28;21092;-81
2023/07/29 04:52:49;;;;;;;0.10;0.10;;;19.70;99.90;;;;;;5031842;28;20213;-81
2023/07/29 04:55:15;;;;;;;0.10;0.10;;;19.80;99.90;;;;;;5029998;28;20193;-82
2023/07/29 04:57:41;;;;;;;0.10;0.10;;;20.00;99.90;;;;;;5031803;28;20258;-81
2023/07/29 05:00:07;;;;;;;0.10;0.10;;;20.00;99.90;;;;;;5031087;28;20185;-81
2023/07/29 05:02:32;;;;;;;0.10;0.10;;;20.10;99.90;;;;;;5032161;28;20678;-80
2023/07/29 05:04:58;;;;;;;0.10;0.10;;;20.20;99.90;;;;;;5030153;28;20193;-81
2023/07/29 05:07:23;;;;;;;0.10;0.10;;;20.10;99.90;;;;;;5030643;28;20186;-81
2023/07/29 05:09:49;;;;;;;0.10;0.10;;;19.80;99.90;;;;;;5032997;28;20202;-81
2023/07/29 05:12:14;;;;;;;0.10;0.10;;;19.60;99.90;;;;;;5030801;28;20213;-81
2023/07/29 05:14:40;;;;;;;0.10;0.10;;;19.60;99.90;;;;;;5030696;28;20571;-81
2023/07/29 05:17:06;;;;;;;0.10;0.10;;;20.00;99.90;;;;;;5028955;28;20239;-81
2023/07/29 05:19:31;;;;;;;0.10;0.10;;;19.80;99.90;;;;;;5030667;28;20187;-81
2023/07/29 05:21:57;;;;;;;0.10;0.10;;;19.90;99.90;;;;;;5030664;28;20206;-80
2023/07/29 05:24:23;;;;;;;0.10;0.10;;;20.10;99.90;;;;;;5034798;28;20193;-82
2023/07/29 05:26:49;;;;;;;0.10;0.10;;;20.30;99.90;;;;;;5034222;28;20725;-81
2023/07/29 05:29:14;;;;;;;0.10;0.10;;;20.50;99.90;;;;;;5036335;28;20198;-82
2023/07/29 05:31:40;;;;;;;0.10;0.10;;;20.70;99.90;;;;;;5034564;28;20319;-81
2023/07/29 05:34:05;;;;;;;0.10;0.10;;;20.60;99.90;;;;;;5032485;28;20242;-81
2023/07/29 05:36:31;;;;;;;0.10;0.10;;;20.50;99.90;;;;;;5034746;28;20182;-81
2023/07/29 05:38:56;;;;;;;0.10;0.10;;;20.70;99.90;;;;;;5029697;28;20186;-82
2023/07/29 05:41:22;;;;;;;0.10;0.10;;;21.00;99.90;;;;;;5031554;28;20190;-81
2023/07/29 05:43:47;;;;;;;0.10;0.10;;;21.20;99.90;;;;;;5034353;28;20186;-81
2023/07/29 05:46:13;;;;;;;0.10;0.10;;;21.10;99.90;;;;;;5033249;28;20190;-82
2023/07/29 05:48:38;;;;;;;0.10;0.10;;;21.00;99.90;;;;;;5032994;28;20545;-82
2023/07/29 05:51:07;;;;;;;0.10;0.10;;;20.90;99.90;;;;;;5032985;28;20219;-82
2023/07/29 05:53:32;;;;;;;0.10;0.10;;;20.80;99.90;;;;;;5033332;28;20244;-82
2023/07/29 05:55:58;;;;;;;0.10;0.10;;;20.70;99.90;;;;;;5033474;28;20222;-81
2023/07/29 05:58:23;;;;;;;0.10;0.10;;;20.80;99.90;;;;;;5030972;28;20273;-82
2023/07/29 06:00:49;;;;;;;0.10;0.10;;;20.80;99.90;;;;;;5033700;28;20202;-80
2023/07/29 06:03:14;;;;;;;0.10;0.10;;;20.80;99.90;;;;;;5043084;28;20217;-81
2023/07/29 06:05:40;;;;;;;0.10;0.10;;;20.70;99.90;;;;;;5032031;28;20213;-82
2023/07/29 06:08:07;;;;;;;0.10;0.10;;;20.70;99.90;;;;;;5035112;28;20204;-80
2023/07/29 06:10:32;;;;;;;0.10;0.10;;;20.50;99.90;;;;;;5038646;28;20210;-79
2023/07/29 06:12:58;;;;;;;0.10;0.10;;;20.60;99.90;;;;;;5039551;28;20216;-79
2023/07/29 06:15:23;;;;;;;0.10;0.10;;;20.70;99.90;;;;;;5034052;28;20197;-79
2023/07/29 06:17:49;;;;;;;0.10;0.10;;;20.40;99.90;;;;;;5030626;28;20274;-79
2023/07/29 06:20:15;;;;;;;0.10;0.10;;;20.50;99.90;;;;;;5034656;28;20196;-79
2023/07/29 06:22:41;;;;;;;0.10;0.10;;;20.60;99.90;;;;;;5032148;28;20285;-79
2023/07/29 06:25:07;;;;;;;0.10;0.10;;;20.60;99.90;;;;;;5033415;28;20189;-79
2023/07/29 06:27:32;;;;;;;0.10;0.10;;;20.70;99.90;;;;;;5033309;28;20716;-79
2023/07/29 06:29:58;;;;;;;0.10;0.10;;;20.60;99.90;;;;;;5035897;28;20181;-81
2023/07/29 06:32:23;;;;;;;0.10;0.10;;;20.60;99.90;;;;;;5035026;28;20714;-81
2023/07/29 06:34:49;;;;;;;0.10;0.10;;;20.30;99.90;;;;;;5037817;28;20244;-81
2023/07/29 06:37:14;;;;;;;0.10;0.10;;;20.40;99.90;;;;;;5034178;28;20243;-81
2023/07/29 06:39:40;;;;;;;0.10;0.10;;;20.40;99.90;;;;;;5036024;28;20269;-81
2023/07/29 06:42:05;;;;;;;0.10;0.10;;;20.50;99.90;;;;;;5037663;28;20276;-81
2023/07/29 06:44:31;;;;;;;0.10;0.10;;;20.50;99.90;;;;;;5045131;28;20182;-81
2023/07/29 06:46:58;;;;;;;0.10;0.10;;;20.60;99.90;;;;;;5035760;28;20190;-81
2023/07/29 06:49:23;;;;;;;0.10;0.10;;;20.60;99.90;;;;;;5035269;28;20237;-81
2023/07/29 06:51:48;;;;;;;0.10;0.10;;;20.50;99.90;;;;;;5034027;28;20202;-81
2023/07/29 06:54:17;;;;;;;0.10;0.10;;;20.20;99.90;;;;;;5038097;28;20209;-81
2023/07/29 06:56:42;;;;;;;0.10;0.10;;;19.60;99.90;;;;;;5034982;28;20177;-81
2023/07/29 06:59:08;;;;;;;0.10;0.10;;;19.50;99.90;;;;;;5036202;28;20191;-81
2023/07/29 07:01:34;;;;;;;0.10;0.10;;;19.50;99.90;;;;;;5034693;28;20181;-81
2023/07/29 07:03:59;;;;;;;0.10;0.10;;;19.60;99.90;;;;;;5035874;28;20695;-81
2023/07/29 07:06:25;;;;;;;0.10;0.10;;;20.00;99.90;;;;;;5034137;28;20210;-81
2023/07/29 07:08:51;;;;;;;0.10;0.10;;;20.20;99.90;;;;;;5033816;28;20217;-81
2023/07/29 07:11:17;;;;;;;0.10;0.10;;;20.40;99.90;;;;;;5031105;28;20281;-81
2023/07/29 07:13:43;;;;;;;0.10;0.10;;;20.60;99.90;;;;;;5032040;28;20255;-81
2023/07/29 07:16:08;;;;;;;0.10;0.10;;;20.70;99.90;;;;;;5032711;28;20182;-81
2023/07/29 07:18:34;;;;;;;0.10;0.10;;;20.80;99.90;;;;;;5035852;28;21221;-81
2023/07/29 07:20:59;;;;;;;0.10;0.10;;;20.80;99.90;;;;;;5036109;28;20186;-81
2023/07/29 07:23:25;;;;;;;0.10;0.10;;;20.80;99.90;;;;;;5032926;28;21150;-81
2023/07/29 07:25:50;;;;;;;0.10;0.10;;;20.70;99.90;;;;;;5032708;28;20196;-81
2023/07/29 07:28:16;;;;;;;0.10;0.10;;;20.70;99.90;;;;;;5033633;28;20542;-81
2023/07/29 07:30:41;;;;;;;0.10;0.10;;;20.80;99.90;;;;;;5036088;28;20202;-81
2023/07/29 07:33:07;;;;;;;0.10;0.10;;;20.70;99.90;;;;;;5031822;28;20563;-81
2023/07/29 07:35:33;;;;;;;0.10;0.10;;;20.70;99.90;;;;;;5034404;28;20178;-81
2023/07/29 07:38:01;;;;;;;0.10;0.10;;;20.70;99.90;;;;;;5034600;28;20265;-81
2023/07/29 07:40:27;;;;;;;0.10;0.10;;;20.60;99.90;;;;;;5033318;28;20244;-81
2023/07/29 07:42:52;;;;;;;0.10;0.10;;;20.80;99.90;;;;;;5037324;28;20206;-81
2023/07/29 07:45:18;;;;;;;0.10;0.10;;;20.80;99.90;;;;;;5032584;28;20953;-81
2023/07/29 07:47:43;;;;;;;0.10;0.10;;;20.80;99.90;;;;;;5035981;28;20177;-81
2023/07/29 07:50:09;;;;;;;0.10;0.10;;;21.00;99.90;;;;;;5036111;28;20182;-81
2023/07/29 07:52:35;;;;;;;0.10;0.10;;;21.30;99.90;;;;;;5035842;28;20232;-81
2023/07/29 07:55:00;;;;;;;0.10;0.10;;;21.50;99.90;;;;;;5035105;28;20264;-81
2023/07/29 07:57:26;;;;;;;0.10;0.10;;;21.90;99.90;;;;;;5036299;28;20185;-81
2023/07/29 07:59:52;;;;;;;0.10;0.10;;;22.10;99.90;;;;;;5032799;28;20189;-81
2023/07/29 08:02:18;;;;;;;0.10;0.10;;;22.00;99.90;;;;;;5035479;28;20225;-81
2023/07/29 08:04:43;;;;;;;0.10;0.10;;;22.00;99.90;;;;;;5034063;28;20707;-81
2023/07/29 08:07:09;;;;;;;0.10;0.10;;;22.00;99.90;;;;;;5031730;28;20183;-81
2023/07/29 08:09:34;;;;;;;0.10;0.10;;;22.00;99.90;;;;;;5036383;28;20177;-81
2023/07/29 08:12:00;;;;;;;0.10;0.10;;;22.10;99.90;;;;;;5034194;28;20563;-81
2023/07/29 08:14:26;;;;;;;0.10;0.10;;;22.40;99.90;;;;;;5031365;28;20655;-81
2023/07/29 08:16:51;;;;;;;0.10;0.10;;;22.80;99.90;;;;;;5033023;28;20189;-81
2023/07/29 08:19:17;;;;;;;0.10;0.10;;;23.10;99.90;;;;;;5031766;28;20178;-81
2023/07/29 08:21:42;;;;;;;0.10;0.10;;;23.00;99.90;;;;;;5032525;28;21320;-81
2023/07/29 08:24:08;;;;;;;0.10;0.10;;;23.00;99.90;;;;;;5033195;28;20678;-81
2023/07/29 08:26:33;;;;;;;0.10;0.10;;;23.10;99.90;;;;;;5032717;28;20174;-81
2023/07/29 08:28:59;;;;;;;0.10;0.10;;;23.30;99.90;;;;;;5033382;28;20555;-81
2023/07/29 08:31:24;;;;;;;0.10;0.10;;;23.30;99.90;;;;;;5032184;28;20702;-81
2023/07/29 08:33:50;;;;;;;0.10;0.10;;;23.60;99.90;;;;;;5033114;28;20194;-81
2023/07/29 08:36:16;;;;;;;0.10;0.10;;;24.20;99.90;;;;;;5032527;28;20178;-81
2023/07/29 08:38:41;;;;;;;0.10;0.10;;;24.60;99.90;;;;;;5032631;28;20205;-81
2023/07/29 08:41:13;;;;;;;0.10;0.10;;;24.70;99.90;;;;;;5029535;28;20190;-81
2023/07/29 08:43:44;;;;;;;0.10;0.10;;;24.60;99.90;;;;;;5038038;28;20224;-81
2023/07/29 08:46:10;;;;;;;0.10;0.10;;;24.60;99.90;;;;;;5037190;28;20555;-80
2023/07/29 08:48:43;;;;;;;0.10;0.10;;;25.00;99.90;;;;;;5034568;28;20200;-81
2023/07/29 08:51:10;;;;;;;0.10;0.10;;;25.30;99.90;;;;;;5032604;28;20220;-81
2023/07/29 08:53:36;;;;;;;0.10;0.10;;;25.30;99.90;;;;;;5049328;28;20217;-81
2023/07/29 08:56:02;;;;;;;0.10;0.10;;;25.00;99.90;;;;;;5035450;28;20192;-81
2023/07/29 08:58:29;;;;;;;0.10;0.10;;;24.90;99.90;;;;;;5033832;28;20190;-81
2023/07/29 09:00:54;;;;;;;0.10;0.10;;;24.60;99.90;;;;;;5031055;28;20240;-81
2023/07/29 09:03:21;;;;;;;0.10;0.10;;;24.60;99.90;;;;;;5031032;28;20504;-81
2023/07/29 09:05:47;;;;;;;0.10;0.10;;;24.50;99.90;;;;;;5029964;28;20202;-82
2023/07/29 09:08:13;;;;;;;0.10;0.10;;;24.40;99.90;;;;;;5028790;28;20205;-81
2023/07/29 09:10:39;;;;;;;0.10;0.10;;;24.30;99.90;;;;;;5026754;28;20217;-81
2023/07/29 09:13:05;;;;;;;0.10;0.10;;;24.60;99.90;;;;;;5031986;28;20214;-81
2023/07/29 09:15:33;;;;;;;0.10;0.10;;;25.00;99.90;;;;;;5027875;28;20178;-82
2023/07/29 09:17:59;;;;;;;0.10;0.10;;;25.20;99.90;;;;;;5030653;28;20184;-81
2023/07/29 09:20:28;;;;;;;0.10;0.10;;;25.10;99.90;;;;;;5029986;28;20209;-81
2023/07/29 09:22:59;;;;;;;0.10;0.10;;;24.80;99.90;;;;;;5031048;28;20198;-81
2023/07/29 09:25:27;;;;;;;0.10;0.10;;;25.00;99.90;;;;;;5031808;28;20677;-82
2023/07/29 09:27:53;;;;;;;0.10;0.10;;;25.00;99.90;;;;;;5027982;28;20195;-82
2023/07/29 09:30:18;;;;;;;0.10;0.10;;;24.80;99.90;;;;;;5030983;28;20210;-82
2023/07/29 09:32:44;;;;;;;0.10;0.10;;;24.80;99.90;;;;;;5035385;28;20216;-81
2023/07/29 09:35:13;;;;;;;0.10;0.10;;;25.20;99.90;;;;;;5037977;28;20185;-81
2023/07/29 09:37:39;;;;;;;0.10;0.10;;;25.30;99.90;;;;;;5051977;28;20217;-81
2023/07/29 09:40:06;;;;;;;0.10;0.10;;;25.20;99.90;;;;;;5036464;28;20194;-81
2023/07/29 09:42:32;;;;;;;0.10;0.10;;;25.10;99.90;;;;;;5035565;28;20198;-80
2023/07/29 09:44:58;;;;;;;0.10;0.10;;;25.20;99.90;;;;;;5036086;28;20234;-81
2023/07/29 09:47:25;;;;;;;0.10;0.10;;;25.20;99.90;;;;;;5036369;28;20186;-80
2023/07/29 09:49:51;;;;;;;0.10;0.10;;;25.30;99.90;;;;;;5036486;28;20182;-83
2023/07/29 09:52:18;;;;;;;0.10;0.10;;;25.20;99.90;;;;;;5037198;28;20209;-81
2023/07/29 09:54:44;;;;;;;0.10;0.10;;;25.40;99.90;;;;;;5035153;28;20726;-80
2023/07/29 09:57:13;;;;;;;0.10;0.10;;;25.70;99.90;;;;;;5031935;28;20185;-82
2023/07/29 09:59:38;;;;;;;0.10;0.10;;;25.80;99.90;;;;;;5033938;28;20175;-81
2023/07/29 10:02:05;;;;;;;0.10;0.10;;;25.80;99.90;;;;;;5030880;28;20213;-81
2023/07/29 10:04:32;;;;;;;0.10;0.10;;;26.00;99.90;;;;;;5032848;28;20554;-82
2023/07/29 10:06:59;;;;;;;0.10;0.10;;;26.00;99.90;;;;;;5030545;28;20729;-82
2023/07/29 10:09:25;;;;;;;0.10;0.10;;;26.10;99.90;;;;;;5032273;28;20226;-82
2023/07/29 10:11:53;;;;;;;0.10;0.10;;;26.10;99.90;;;;;;5032793;28;20695;-82
2023/07/29 10:14:19;;;;;;;0.10;0.10;;;26.20;99.90;;;;;;5032732;28;20220;-82
2023/07/29 10:16:46;;;;;;;0.10;0.10;;;26.20;99.90;;;;;;5033964;28;20190;-82
2023/07/29 10:19:14;;;;;;;0.10;0.10;;;25.90;99.90;;;;;;5035213;28;20647;-82
2023/07/29 10:21:44;;;;;;;0.10;0.10;;;25.80;99.90;;;;;;5036002;28;20239;-81
2023/07/29 10:24:18;;;;;;;0.10;0.10;;;25.60;99.90;;;;;;5037242;28;20272;-81
2023/07/29 10:26:47;;;;;;;0.10;0.10;;;25.60;99.90;;;;;;5031246;28;20182;-79
2023/07/29 10:29:14;;;;;;;0.10;0.10;;;25.50;99.90;;;;;;5032771;28;20236;-84
2023/07/29 10:31:42;;;;;;;0.10;0.10;;;25.20;99.90;;;;;;5032315;28;20301;-83
2023/07/29 10:34:08;;;;;;;0.10;0.10;;;25.00;99.90;;;;;;5033665;28;20274;-83
2023/07/29 10:36:36;;;;;;;0.10;0.10;;;24.80;99.90;;;;;;5033531;28;20903;-84
2023/07/29 10:39:01;;;;;;;0.10;0.10;;;24.60;99.90;;;;;;5030782;28;21179;-83
2023/07/29 10:41:56;;;;;;;0.10;0.10;;;24.30;99.90;;;;;;5032434;28;20239;-83
2023/07/29 10:44:39;;;;;;;0.10;0.10;;;24.20;99.90;;;;;;5034538;28;20182;-83
2023/07/29 10:47:15;;;;;;;0.10;0.10;;;24.00;99.90;;;;;;5032526;28;20247;-83
2023/07/29 10:49:42;;;;;;;0.10;0.10;;;23.80;99.90;;;;;;5033903;28;20181;-83
2023/07/29 10:52:07;;;;;;;0.10;0.10;;;23.70;99.90;;;;;;5030905;28;20590;-83
2023/07/29 10:54:44;;;;;;;0.10;0.10;;;23.80;99.90;;;;;;5030875;28;20182;-83
2023/07/29 10:57:30;;;;;;;0.10;0.10;;;24.10;99.90;;;;;;5033838;28;20269;-83
2023/07/29 10:59:56;;;;;;;0.10;0.10;;;24.20;99.90;;;;;;5032885;28;20725;-83
2023/07/29 11:02:31;;;;;;;0.10;0.10;;;24.60;99.90;;;;;;5032570;28;20271;-84
2023/07/29 11:04:57;;;;;;;0.10;0.10;;;24.80;99.90;;;;;;5032719;28;20174;-83
2023/07/29 11:07:26;;;;;;;0.10;0.10;;;25.00;99.90;;;;;;5033544;28;20202;-83
2023/07/29 11:09:58;;;;;;;0.10;0.10;;;25.50;99.90;;;;;;5030189;28;20207;-83
2023/07/29 11:13:06;;;;;;;0.10;0.10;;;25.40;99.90;;;;;;5031765;28;20657;-84
2023/07/29 11:15:32;;;;;;;0.10;0.10;;;25.60;99.90;;;;;;5019262;28;20190;-83
2023/07/29 11:18:01;;;;;;;0.10;0.10;;;26.00;99.90;;;;;;5031182;28;20174;-83
2023/07/29 11:20:31;;;;;;;0.10;0.10;;;26.30;99.90;;;;;;5032811;28;20823;-84
2023/07/29 11:22:59;;;;;;;0.10;0.10;;;26.80;99.90;;;;;;5032341;28;20230;-83
2023/07/29 11:25:26;;;;;;;0.10;0.10;;;27.20;99.90;;;;;;5032338;28;20212;-84
2023/07/29 11:27:53;;;;;;;0.10;0.10;;;27.60;99.90;;;;;;5033683;28;20174;-84
2023/07/29 11:30:19;;;;;;;0.10;0.10;;;27.80;99.90;;;;;;5033519;28;20255;-83
2023/07/29 11:32:45;;;;;;;0.10;0.10;;;28.10;99.90;;;;;;5034704;28;20222;-83
2023/07/29 11:35:14;;;;;;;0.10;0.10;;;28.30;99.90;;;;;;5033974;28;20177;-83
2023/07/29 11:37:41;;;;;;;0.10;0.10;;;28.50;99.90;;;;;;5034227;28;20651;-83
2023/07/29 11:40:10;;;;;;;0.10;0.10;;;28.60;99.90;;;;;;5032288;28;20195;-83
2023/07/29 11:42:36;;;;;;;0.10;0.10;;;28.60;99.90;;;;;;5033041;28;20194;-83
2023/07/29 11:45:03;;;;;;;0.10;0.10;;;28.60;99.90;;;;;;5030359;28;20243;-86
2023/07/29 11:47:29;;;;;;;0.10;0.10;;;28.20;99.90;;;;;;5029030;28;20170;-83
2023/07/29 11:49:58;;;;;;;0.10;0.10;;;27.70;99.90;;;;;;5031416;28;20193;-84
2023/07/29 11:52:24;;;;;;;0.10;0.10;;;27.40;99.90;;;;;;5030635;28;20222;-83
2023/07/29 11:54:50;;;;;;;0.10;0.10;;;27.80;99.90;;;;;;5030672;28;20221;-83
2023/07/29 11:57:18;;;;;;;0.10;0.10;;;27.90;99.90;;;;;;5028335;28;20252;-86
2023/07/29 11:59:43;;;;;;;0.10;0.10;;;27.90;99.90;;;;;;5028995;28;20193;-84
2023/07/29 12:02:13;;;;;;;0.10;0.10;;;28.00;99.90;;;;;;5047057;28;20217;-84
2023/07/29 12:04:39;;;;;;;0.10;0.10;;;28.00;99.90;;;;;;5026041;28;20185;-85
2023/07/29 12:07:06;;;;;;;0.10;0.10;;;28.00;99.90;;;;;;5036762;28;20317;-82
2023/07/29 12:09:32;;;;;;;0.10;0.10;;;27.90;99.90;;;;;;5041484;28;20228;-81
2023/07/29 12:11:58;;;;;;;0.10;0.10;;;28.00;99.90;;;;;;5037515;28;20221;-81
2023/07/29 12:14:27;;;;;;;0.10;0.10;;;28.00;99.90;;;;;;5035941;28;20340;-82
2023/07/29 12:16:53;;;;;;;0.10;0.10;;;27.90;99.90;;;;;;5036397;28;20186;-82
2023/07/29 12:19:19;;;;;;;0.10;0.10;;;28.20;99.90;;;;;;5033840;28;20225;-81
2023/07/29 12:21:44;;;;;;;0.10;0.10;;;28.20;99.90;;;;;;5038512;28;20182;-82
2023/07/29 12:24:13;;;;;;;0.10;0.10;;;28.50;99.90;;;;;;5041364;28;20221;-82
2023/07/29 12:26:38;;;;;;;0.10;0.10;;;28.70;99.90;;;;;;5042529;28;20196;-82
2023/07/29 12:29:22;;;;;;;0.10;0.10;;;28.50;99.90;;;;;;5042447;28;20181;-81
2023/07/29 12:31:49;;;;;;;0.10;0.10;;;28.40;99.90;;;;;;5040538;28;20800;-82
2023/07/29 12:34:21;;;;;;;0.10;0.10;;;27.90;99.90;;;;;;5057805;28;20212;-82
2023/07/29 12:36:51;;;;;;;0.10;0.10;;;27.50;99.90;;;;;;5040913;28;20254;-81
2023/07/29 12:39:22;;;;;;;0.10;0.10;;;27.00;99.90;;;;;;5038775;28;20182;-82
2023/07/29 12:41:49;;;;;;;0.10;0.10;;;26.70;99.90;;;;;;5034871;28;20210;-82
2023/07/29 12:44:14;;;;;;;0.10;0.10;;;26.70;99.90;;;;;;5029685;28;20233;-82
2023/07/29 12:46:40;;;;;;;0.10;0.10;;;26.70;99.90;;;;;;5032433;28;20206;-82